createdAt,value
2024-05-09T00:01:18.562Z,8.80
2024-05-09T00:03:50.610Z,9.73
2024-05-09T00:06:19.939Z,8.50
2024-05-09T00:08:49.180Z,8.50
2024-05-09T00:11:20.413Z,8.27
2024-05-09T00:13:49.910Z,8.43
2024-05-09T00:16:19.144Z,8.30
2024-05-09T00:18:51.244Z,8.83
2024-05-09T00:21:20.529Z,8.90
2024-05-09T00:23:49.782Z,9.70
2024-05-09T00:26:19.951Z,8.70
2024-05-09T00:28:49.288Z,9.13
2024-05-09T00:31:18.623Z,9.07
2024-05-09T00:33:48.028Z,9.00
2024-05-09T00:36:20.000Z,9.47
2024-05-09T00:38:49.736Z,9.23
2024-05-09T00:41:19.926Z,9.17
2024-05-09T00:43:49.297Z,8.90
2024-05-09T00:46:18.550Z,8.77
2024-05-09T00:48:47.927Z,9.77
2024-05-09T00:51:20.087Z,9.77
2024-05-09T00:53:49.618Z,9.40
2024-05-09T00:56:19.507Z,10.47
2024-05-09T00:58:48.958Z,10.30
2024-05-09T01:01:20.704Z,9.57
2024-05-09T01:03:51.289Z,10.40
2024-05-09T01:06:24.225Z,10.47
2024-05-09T01:08:53.732Z,10.27
2024-05-09T01:11:23.113Z,9.57
2024-05-09T01:13:52.345Z,10.23
2024-05-09T01:16:21.515Z,10.03
2024-05-09T01:18:50.909Z,9.47
2024-05-09T01:21:20.398Z,9.17
2024-05-09T01:23:52.308Z,10.07
2024-05-09T01:26:21.617Z,9.73
2024-05-09T01:28:51.047Z,10.67
2024-05-09T01:31:20.348Z,9.60
2024-05-09T01:33:49.888Z,9.73
2024-05-09T01:36:19.196Z,9.07
2024-05-09T01:38:48.407Z,9.30
2024-05-09T01:41:20.375Z,10.07
2024-05-09T01:43:49.815Z,9.70
2024-05-09T01:46:19.456Z,9.67
2024-05-09T01:48:48.846Z,10.10
2024-05-09T01:51:18.245Z,9.97
2024-05-09T01:53:47.571Z,8.90
2024-05-09T01:56:16.910Z,10.10
2024-05-09T01:58:48.898Z,9.60
2024-05-09T02:01:18.247Z,9.43
2024-05-09T02:03:47.811Z,8.90
2024-05-09T02:06:17.396Z,9.60
2024-05-09T02:08:48.122Z,9.00
2024-05-09T02:11:17.516Z,8.87
2024-05-09T02:13:49.576Z,9.80
2024-05-09T02:16:18.934Z,9.20
2024-05-09T02:18:48.373Z,9.23
2024-05-09T02:21:17.726Z,8.90
2024-05-09T02:23:47.078Z,9.00
2024-05-09T02:26:16.402Z,9.57
2024-05-09T02:28:45.727Z,8.90
2024-05-09T02:31:17.674Z,8.43
2024-05-09T02:33:47.479Z,8.43
2024-05-09T02:36:17.169Z,8.60
2024-05-09T02:38:43.929Z,8.33
2024-05-09T02:41:13.224Z,9.43
2024-05-09T02:43:39.960Z,8.83
2024-05-09T02:46:09.574Z,9.70
2024-05-09T02:48:38.975Z,8.97
2024-05-09T02:51:08.449Z,8.87
2024-05-09T02:53:35.371Z,9.20
2024-05-09T02:56:04.746Z,8.67
2024-05-09T02:58:31.409Z,8.77
2024-05-09T03:01:00.690Z,8.60
2024-05-09T03:03:27.723Z,8.87
2024-05-09T03:05:59.671Z,9.17
2024-05-09T03:08:27.862Z,8.47
2024-05-09T03:10:57.119Z,9.67
2024-05-09T03:13:23.773Z,8.80
2024-05-09T03:15:53.058Z,9.23
2024-05-09T03:18:22.634Z,9.67
2024-05-09T03:20:49.506Z,9.13
2024-05-09T03:23:21.693Z,8.70
2024-05-09T03:25:48.483Z,9.13
2024-05-09T03:28:17.815Z,7.90
2024-05-09T03:30:44.439Z,8.17
2024-05-09T03:33:15.302Z,8.60
2024-05-09T03:35:43.017Z,8.03
2024-05-09T03:38:12.572Z,8.70
2024-05-09T03:40:50.344Z,9.00
2024-05-09T03:43:20.663Z,8.30
2024-05-09T03:45:50.888Z,8.40
2024-05-09T03:48:17.882Z,8.17
2024-05-09T03:50:47.480Z,7.63
2024-05-09T03:53:18.413Z,8.47
2024-05-09T03:55:49.698Z,7.80
2024-05-09T03:58:19.108Z,7.33
2024-05-09T04:00:45.883Z,7.90
2024-05-09T04:03:15.587Z,7.63
2024-05-09T04:05:44.043Z,8.10
2024-05-09T04:08:15.771Z,7.50
2024-05-09T04:10:42.756Z,8.70
2024-05-09T04:13:14.672Z,8.60
2024-05-09T04:15:41.396Z,8.60
2024-05-09T04:18:10.917Z,9.37
2024-05-09T04:20:40.283Z,8.67
2024-05-09T04:23:13.850Z,9.07
2024-05-09T04:25:41.785Z,9.43
2024-05-09T04:28:11.079Z,9.93
2024-05-09T04:30:41.691Z,9.50
2024-05-09T04:33:13.842Z,9.87
2024-05-09T04:35:42.065Z,10.50
2024-05-09T04:38:11.770Z,10.67
2024-05-09T04:40:38.592Z,9.23
2024-05-09T04:43:08.266Z,11.73
2024-05-09T04:45:35.446Z,9.80
2024-05-09T04:48:08.071Z,11.23
2024-05-09T04:50:38.262Z,10.67
2024-05-09T04:53:10.579Z,12.00
2024-05-09T04:55:38.348Z,11.20
2024-05-09T04:58:09.611Z,13.17
2024-05-09T05:00:38.744Z,12.97
2024-05-09T05:03:14.864Z,13.30
2024-05-09T05:05:44.286Z,11.77
2024-05-09T05:08:15.059Z,12.50
2024-05-09T05:10:42.242Z,12.87
2024-05-09T05:13:24.575Z,12.57
2024-05-09T05:15:53.252Z,12.60
2024-05-09T05:18:25.374Z,12.70
2024-05-09T05:20:52.299Z,13.17
2024-05-09T05:23:22.415Z,12.30
2024-05-09T05:25:49.967Z,12.87
2024-05-09T05:28:19.456Z,13.50
2024-05-09T05:30:46.160Z,12.90
2024-05-09T05:33:16.185Z,12.53
2024-05-09T05:35:45.599Z,12.67
2024-05-09T05:38:14.819Z,12.80
2024-05-09T05:40:41.558Z,12.23
2024-05-09T05:43:11.304Z,13.20
2024-05-09T05:45:38.613Z,12.37
2024-05-09T05:48:09.919Z,12.50
2024-05-09T05:50:38.324Z,12.20
2024-05-09T05:53:11.181Z,13.50
2024-05-09T05:55:39.495Z,12.40
2024-05-09T05:58:11.008Z,12.93
2024-05-09T06:00:39.930Z,13.23
2024-05-09T06:03:11.528Z,13.20
2024-05-09T06:05:39.600Z,12.37
2024-05-09T06:08:12.439Z,12.97
2024-05-09T06:10:40.912Z,13.33
2024-05-09T06:13:11.969Z,14.73
2024-05-09T06:15:39.279Z,13.60
2024-05-09T06:18:09.679Z,13.50
2024-05-09T06:20:39.500Z,12.87
2024-05-09T06:23:09.893Z,13.03
2024-05-09T06:25:39.939Z,13.87
2024-05-09T06:28:09.433Z,12.77
2024-05-09T06:30:40.298Z,12.70
2024-05-09T06:33:13.544Z,14.00
2024-05-09T06:35:43.203Z,12.00
2024-05-09T06:38:12.837Z,12.23
2024-05-09T06:40:43.822Z,13.60
2024-05-09T06:43:15.412Z,12.57
2024-05-09T06:45:43.679Z,12.50
2024-05-09T06:48:13.097Z,12.53
2024-05-09T06:50:41.075Z,12.07
2024-05-09T06:53:10.675Z,12.53
2024-05-09T06:55:37.911Z,12.17
2024-05-09T06:58:10.944Z,12.50
2024-05-09T07:00:40.212Z,11.63
2024-05-09T07:03:12.283Z,11.47
2024-05-09T07:05:40.472Z,12.73
2024-05-09T07:08:10.138Z,13.77
2024-05-09T07:10:37.249Z,11.83
2024-05-09T07:13:13.104Z,12.83
2024-05-09T07:15:40.007Z,13.60
2024-05-09T07:18:13.680Z,12.27
2024-05-09T07:20:40.900Z,12.83
2024-05-09T07:23:11.295Z,12.97
2024-05-09T07:25:38.094Z,12.10
2024-05-09T07:28:07.832Z,12.03
2024-05-09T07:30:37.027Z,11.03
2024-05-09T07:33:06.614Z,11.47
2024-05-09T07:35:33.722Z,11.33
2024-05-09T07:38:03.130Z,10.90
2024-05-09T07:40:35.804Z,11.23
2024-05-09T07:43:06.319Z,10.57
2024-05-09T07:53:37.090Z,10.53
2024-05-09T07:55:57.690Z,10.73
2024-05-09T07:58:27.858Z,10.63
2024-05-09T08:00:55.210Z,10.67
2024-05-09T08:03:27.500Z,11.17
2024-05-09T08:05:54.515Z,10.17
2024-05-09T08:08:23.885Z,10.83
2024-05-09T08:10:50.765Z,9.97
2024-05-09T08:13:20.064Z,8.50
2024-05-09T08:15:48.770Z,8.73
2024-05-09T08:18:18.320Z,9.17
2024-05-09T08:20:47.985Z,8.60
2024-05-09T08:23:17.747Z,7.87
2024-05-09T08:25:44.426Z,8.00
2024-05-09T08:28:13.964Z,7.83
2024-05-09T08:30:41.130Z,7.90
2024-05-09T08:33:10.653Z,7.83
2024-05-09T08:35:37.434Z,8.07
2024-05-09T08:38:09.666Z,7.77
2024-05-09T08:40:37.851Z,8.03
2024-05-09T08:43:11.523Z,8.50
2024-05-09T08:45:42.110Z,7.97
2024-05-09T08:48:12.861Z,8.27
2024-05-09T08:50:40.578Z,8.70
2024-05-09T08:53:12.702Z,8.50
2024-05-09T08:55:42.797Z,8.50
2024-05-09T08:58:15.686Z,8.77
2024-05-09T09:00:43.777Z,8.10
2024-05-09T09:03:15.321Z,8.27
2024-05-09T09:05:46.872Z,7.20
2024-05-09T09:08:19.114Z,7.77
2024-05-09T09:10:47.544Z,7.87
2024-05-09T09:13:17.082Z,7.80
2024-05-09T09:15:48.242Z,7.10
2024-05-09T09:18:18.274Z,8.27
2024-05-09T09:20:45.261Z,7.17
2024-05-09T09:23:14.617Z,7.70
2024-05-09T09:25:43.953Z,7.93
2024-05-09T09:28:13.389Z,8.67
2024-05-09T09:30:40.458Z,8.10
2024-05-09T09:33:11.209Z,7.40
2024-05-09T09:35:39.374Z,7.50
2024-05-09T09:38:10.516Z,7.27
2024-05-09T09:40:42.820Z,6.50
2024-05-09T09:43:22.084Z,6.63
2024-05-09T09:45:50.398Z,7.67
2024-05-09T09:48:20.216Z,7.13
2024-05-09T09:50:47.267Z,7.70
2024-05-09T09:53:16.782Z,6.17
2024-05-09T09:55:43.743Z,6.77
2024-05-09T09:58:14.451Z,6.50
2024-05-09T10:00:44.603Z,7.90
2024-05-09T10:03:14.112Z,8.13
2024-05-09T10:05:43.991Z,7.80
2024-05-09T10:08:15.843Z,7.80
2024-05-09T10:10:46.316Z,6.70
2024-05-09T10:13:16.223Z,6.60
2024-05-09T10:15:46.591Z,7.40
2024-05-09T10:18:16.519Z,7.67
2024-05-09T10:20:43.560Z,8.17
2024-05-09T10:23:28.545Z,8.10
2024-05-09T10:25:55.956Z,7.70
2024-05-09T10:28:27.814Z,7.23
2024-05-09T10:31:08.462Z,7.17
2024-05-09T10:33:39.137Z,7.40
2024-05-09T10:36:10.703Z,7.03
2024-05-09T10:38:40.307Z,7.90
2024-05-09T10:41:06.971Z,8.07
2024-05-09T10:43:36.626Z,7.97
2024-05-09T10:46:04.293Z,6.60
2024-05-09T10:48:36.836Z,6.50
2024-05-09T10:51:04.039Z,6.73
2024-05-09T10:53:33.459Z,6.80
2024-05-09T10:56:00.760Z,6.17
2024-05-09T10:58:30.717Z,6.83
2024-05-09T11:00:57.901Z,7.00
2024-05-09T11:03:27.640Z,7.70
2024-05-09T11:05:57.186Z,7.07
2024-05-09T11:08:26.935Z,6.80
2024-05-09T11:10:56.301Z,6.80
2024-05-09T11:13:29.026Z,6.20
2024-05-09T11:15:55.763Z,5.97
2024-05-09T11:18:27.207Z,6.47
2024-05-09T11:20:58.254Z,6.53
2024-05-09T11:23:30.124Z,6.00
2024-05-09T11:25:57.961Z,5.70
2024-05-09T11:28:28.974Z,5.80
2024-05-09T11:31:05.196Z,5.20
2024-05-09T11:33:34.692Z,5.20
2024-05-09T11:36:04.435Z,5.87
2024-05-09T11:38:33.684Z,4.37
2024-05-09T11:41:00.336Z,4.33
2024-05-09T11:43:29.683Z,4.43
2024-05-09T11:45:56.544Z,4.53
2024-05-09T11:48:26.550Z,4.57
2024-05-09T11:50:53.907Z,4.90
2024-05-09T11:53:25.758Z,5.37
2024-05-09T11:55:52.604Z,5.27
2024-05-09T11:58:23.035Z,4.57
2024-05-09T12:00:49.944Z,4.30
2024-05-09T12:03:19.445Z,4.20
2024-05-09T12:05:46.452Z,3.50
2024-05-09T12:08:15.822Z,3.60
2024-05-09T12:10:45.213Z,4.00
2024-05-09T12:13:14.609Z,3.80
2024-05-09T12:15:42.504Z,4.30
2024-05-09T12:18:11.849Z,4.70
2024-05-09T12:20:40.026Z,4.43
2024-05-09T12:23:10.671Z,4.77
2024-05-09T12:25:37.751Z,4.70
2024-05-09T12:28:09.913Z,4.43
2024-05-09T12:30:40.004Z,4.97
2024-05-09T12:33:12.165Z,4.20
2024-05-09T12:35:39.972Z,3.70
2024-05-09T12:38:09.358Z,3.60
2024-05-09T12:40:38.632Z,3.13
2024-05-09T12:43:12.182Z,3.97
2024-05-09T12:45:39.365Z,3.70
2024-05-09T12:48:12.097Z,3.70
2024-05-09T12:50:39.877Z,3.40
2024-05-09T12:53:09.256Z,3.40
2024-05-09T12:55:44.494Z,3.40
2024-05-09T12:58:25.050Z,3.10
2024-05-09T13:00:52.489Z,3.50
2024-05-09T13:03:22.363Z,3.70
2024-05-09T13:05:49.735Z,3.50
2024-05-09T13:08:19.208Z,3.40
2024-05-09T13:10:46.011Z,3.60
2024-05-09T13:13:15.404Z,3.03
2024-05-09T13:15:44.771Z,3.40
2024-05-09T13:18:14.238Z,3.20
2024-05-09T13:20:40.971Z,3.13
2024-05-09T13:23:10.311Z,3.10
2024-05-09T13:25:37.920Z,2.93
2024-05-09T13:28:08.175Z,3.07
2024-05-09T13:30:40.105Z,3.30
2024-05-09T13:33:14.522Z,3.30
2024-05-09T13:35:45.484Z,3.50
2024-05-09T13:38:19.187Z,4.00
2024-05-09T13:40:46.424Z,3.40
2024-05-09T13:43:16.059Z,3.77
2024-05-09T13:45:42.924Z,4.00
2024-05-09T13:48:15.135Z,4.40
2024-05-09T13:50:41.993Z,4.00
2024-05-09T13:53:11.727Z,3.60
2024-05-09T13:55:38.931Z,3.83
2024-05-09T13:58:09.454Z,3.37
2024-05-09T14:00:44.911Z,3.73
2024-05-09T14:03:21.460Z,3.40
2024-05-09T14:05:49.775Z,3.40
2024-05-09T14:08:21.398Z,8.77
2024-05-09T14:10:48.353Z,10.97
2024-05-09T14:13:18.227Z,4.70
2024-05-09T14:15:45.669Z,7.67
2024-05-09T14:18:15.350Z,7.83
2024-05-09T14:20:44.966Z,4.10
2024-05-09T14:23:14.252Z,3.00
2024-05-09T14:25:42.881Z,2.80
2024-05-09T14:28:13.776Z,3.00
2024-05-09T14:30:43.208Z,3.17
2024-05-09T14:33:10.380Z,3.00
2024-05-09T14:35:40.132Z,3.53
2024-05-09T14:38:10.028Z,3.47
2024-05-09T14:40:43.220Z,2.90
2024-05-09T14:43:11.464Z,2.90
2024-05-09T14:45:41.102Z,2.80
2024-05-09T14:48:08.419Z,2.90
2024-05-09T14:50:39.666Z,2.43
2024-05-09T14:53:11.043Z,2.87
2024-05-09T14:55:42.587Z,2.77
2024-05-09T14:58:10.696Z,3.03
2024-05-09T15:00:44.638Z,3.03
2024-05-09T15:03:15.120Z,3.20
2024-05-09T15:05:44.826Z,3.00
2024-05-09T15:08:14.211Z,3.33
2024-05-09T15:10:43.692Z,3.13
2024-05-09T15:13:12.303Z,3.30
2024-05-09T15:15:42.891Z,3.27
2024-05-09T15:18:09.748Z,2.93
2024-05-09T15:20:40.371Z,3.10
2024-05-09T15:23:07.590Z,2.70
2024-05-09T15:25:39.531Z,3.20
2024-05-09T15:28:07.630Z,3.27
2024-05-09T15:30:37.833Z,3.30
2024-05-09T15:33:06.027Z,3.30
2024-05-09T15:35:41.074Z,3.03
2024-05-09T15:38:08.276Z,3.00
2024-05-09T15:40:41.030Z,3.63
2024-05-09T15:43:09.594Z,3.63
2024-05-09T15:45:41.216Z,3.37
2024-05-09T15:48:08.797Z,3.40
2024-05-09T15:50:41.041Z,3.40
2024-05-09T15:53:10.001Z,3.17
2024-05-09T15:55:42.548Z,3.40
2024-05-09T15:58:09.735Z,3.40
2024-05-09T16:00:42.314Z,4.90
2024-05-09T16:03:11.787Z,3.40
2024-05-09T16:05:42.263Z,2.97
2024-05-09T16:08:09.311Z,3.07
2024-05-09T16:10:42.392Z,3.17
2024-05-09T16:13:14.067Z,3.80
2024-05-09T16:15:43.743Z,3.30
2024-05-09T16:18:10.972Z,3.40
2024-05-09T16:20:42.347Z,3.37
2024-05-09T16:23:10.863Z,3.20
2024-05-09T16:25:40.182Z,3.63
2024-05-09T16:28:10.018Z,3.50
2024-05-09T16:30:42.865Z,3.20
2024-05-09T16:33:13.179Z,3.27
2024-05-09T16:35:40.337Z,3.20
2024-05-09T16:38:09.816Z,3.60
2024-05-09T16:40:41.040Z,3.70
2024-05-09T16:43:08.996Z,3.27
2024-05-09T16:45:39.362Z,3.17
2024-05-09T16:48:09.201Z,3.20
2024-05-09T16:50:38.888Z,3.20
2024-05-09T16:53:06.605Z,3.80
2024-05-09T16:55:36.746Z,3.33
2024-05-09T16:58:04.264Z,3.50
2024-05-09T17:00:40.732Z,3.23
2024-05-09T17:03:14.256Z,3.30
2024-05-09T17:05:46.409Z,3.37
2024-05-09T17:08:14.963Z,3.00
2024-05-09T17:10:44.335Z,3.00
2024-05-09T17:13:13.801Z,3.03
2024-05-09T17:15:41.414Z,3.43
2024-05-09T17:18:11.266Z,3.33
2024-05-09T17:20:40.708Z,3.53
2024-05-09T17:23:13.618Z,3.73
2024-05-09T17:25:41.411Z,3.40
2024-05-09T17:28:11.386Z,3.27
2024-05-09T17:30:40.282Z,3.50
2024-05-09T17:33:12.455Z,3.33
2024-05-09T17:35:42.558Z,4.00
2024-05-09T17:38:11.992Z,4.33
2024-05-09T17:40:39.461Z,3.97
2024-05-09T17:43:10.551Z,3.77
2024-05-09T17:45:38.691Z,3.70
2024-05-09T17:48:09.313Z,3.37
2024-05-09T17:50:37.694Z,3.60
2024-05-09T17:53:11.083Z,3.37
2024-05-09T17:55:38.290Z,3.20
2024-05-09T17:58:08.078Z,3.37
2024-05-09T18:00:39.541Z,3.43
2024-05-09T18:03:13.481Z,3.10
2024-05-09T18:05:41.332Z,3.30
2024-05-09T18:08:13.856Z,2.93
2024-05-09T18:10:41.187Z,3.17
2024-05-09T18:13:11.514Z,2.97
2024-05-09T18:15:39.036Z,3.10
2024-05-09T18:18:08.809Z,3.20
2024-05-09T18:20:42.871Z,3.00
2024-05-09T18:23:18.693Z,2.93
2024-05-09T18:25:46.187Z,3.13
2024-05-09T18:28:16.244Z,3.60
2024-05-09T18:30:43.478Z,3.03
2024-05-09T18:33:13.236Z,3.33
2024-05-09T18:35:41.137Z,3.03
2024-05-09T18:38:11.592Z,3.00
2024-05-09T18:40:42.969Z,3.27
2024-05-09T18:43:14.348Z,2.80
2024-05-09T18:45:41.129Z,3.27
2024-05-09T18:48:11.029Z,3.60
2024-05-09T18:50:40.355Z,4.00
2024-05-09T18:53:12.360Z,3.93
2024-05-09T18:55:42.773Z,3.70
2024-05-09T18:58:12.251Z,3.70
2024-05-09T19:00:41.548Z,3.10
2024-05-09T19:03:14.554Z,3.30
2024-05-09T19:05:43.274Z,3.20
2024-05-09T19:08:14.529Z,4.07
2024-05-09T19:10:45.606Z,3.63
2024-05-09T19:13:15.633Z,3.40
2024-05-09T19:15:43.664Z,3.40
2024-05-09T19:18:14.329Z,3.23
2024-05-09T19:20:41.647Z,3.43
2024-05-09T19:23:11.537Z,3.50
2024-05-09T19:25:38.524Z,3.23
2024-05-09T19:28:10.723Z,3.40
2024-05-09T19:30:41.191Z,3.50
2024-05-09T19:33:13.357Z,3.20
2024-05-09T19:35:40.961Z,3.20
2024-05-09T19:38:10.260Z,4.10
2024-05-09T19:40:37.099Z,3.70
2024-05-09T19:43:06.841Z,3.97
2024-05-09T19:45:36.755Z,3.87
2024-05-09T19:48:06.885Z,3.67
2024-05-09T19:50:41.270Z,3.87
2024-05-09T19:53:13.724Z,4.70
2024-05-09T19:55:40.725Z,5.77
2024-05-09T19:58:11.410Z,5.33
2024-05-09T20:00:44.857Z,5.90
2024-05-09T20:03:12.623Z,6.20
2024-05-09T20:05:42.549Z,6.20
2024-05-09T20:08:09.356Z,5.90
2024-05-09T20:10:38.956Z,5.40
2024-05-09T20:13:07.015Z,5.33
2024-05-09T20:15:37.950Z,5.60
2024-05-09T20:18:08.034Z,6.00
2024-05-09T20:20:41.590Z,7.00
2024-05-09T20:23:10.458Z,6.70
2024-05-09T20:25:39.869Z,7.27
2024-05-09T20:28:06.958Z,6.20
2024-05-09T20:30:36.896Z,6.30
2024-05-09T20:33:05.476Z,5.83
2024-05-09T20:35:38.738Z,5.30
2024-05-09T20:38:05.504Z,5.77
2024-05-09T20:40:37.983Z,6.03
2024-05-09T20:43:06.908Z,6.07
2024-05-09T20:45:36.869Z,5.80
2024-05-09T20:48:04.092Z,5.80
2024-05-09T20:50:39.216Z,5.93
2024-05-09T20:53:11.963Z,5.63
2024-05-09T20:55:41.845Z,5.10
2024-05-09T20:58:09.111Z,5.30
2024-05-09T21:00:42.479Z,5.70
2024-05-09T21:03:12.696Z,5.47
2024-05-09T21:05:42.640Z,5.33
2024-05-09T21:08:12.053Z,4.87
2024-05-09T21:10:41.358Z,5.57
2024-05-09T21:13:08.196Z,5.60
2024-05-09T21:15:37.709Z,5.10
2024-05-09T21:18:04.999Z,4.53
2024-05-09T21:20:35.281Z,4.80
2024-05-09T21:23:02.727Z,4.37
2024-05-09T21:25:34.869Z,4.20
2024-05-09T21:28:01.601Z,4.47
2024-05-09T21:30:38.803Z,4.50
2024-05-09T21:33:10.224Z,4.53
2024-05-09T21:35:40.871Z,4.37
2024-05-09T21:38:07.980Z,4.37
2024-05-09T21:40:40.065Z,4.83
2024-05-09T21:43:07.500Z,4.67
2024-05-09T21:45:37.838Z,4.33
2024-05-09T21:48:05.492Z,4.80
2024-05-09T21:50:40.553Z,4.20
2024-05-09T21:53:08.973Z,4.40
2024-05-09T21:55:40.913Z,4.63
2024-05-09T21:58:07.681Z,4.73
2024-05-09T22:00:39.351Z,4.57
2024-05-09T22:03:07.549Z,5.27
2024-05-09T22:05:37.854Z,4.93
2024-05-09T22:08:05.070Z,4.93
2024-05-09T22:10:36.293Z,4.93
2024-05-09T22:13:07.103Z,4.73
2024-05-09T22:15:38.374Z,5.13
2024-05-09T22:18:07.453Z,4.93
2024-05-09T22:20:39.432Z,4.97
2024-05-09T22:23:07.116Z,5.07
2024-05-09T22:25:36.804Z,5.03
2024-05-09T22:28:06.670Z,5.07
2024-05-09T22:30:39.167Z,4.67
2024-05-09T22:33:07.407Z,4.80
2024-05-09T22:35:36.832Z,4.53
2024-05-09T22:38:03.599Z,5.00
2024-05-09T22:40:42.522Z,4.83
2024-05-09T22:43:20.275Z,5.10
2024-05-09T22:45:50.677Z,5.10
2024-05-09T22:48:17.672Z,4.87
2024-05-09T22:50:47.306Z,4.63
2024-05-09T22:53:14.025Z,4.70
2024-05-09T22:55:43.301Z,4.93
2024-05-09T22:58:10.108Z,5.77
2024-05-09T23:00:42.179Z,5.63
2024-05-09T23:03:09.072Z,5.50
2024-05-09T23:05:38.459Z,5.33
2024-05-09T23:08:05.289Z,5.40
2024-05-09T23:10:37.604Z,5.60
2024-05-09T23:13:05.717Z,5.10
2024-05-09T23:15:35.596Z,5.40
2024-05-09T23:18:05.620Z,5.63
2024-05-09T23:20:38.661Z,5.63
2024-05-09T23:23:06.861Z,5.60
2024-05-09T23:25:36.241Z,5.33
2024-05-09T23:28:03.157Z,5.27
2024-05-09T23:30:38.072Z,5.20
2024-05-09T23:33:10.168Z,5.60
2024-05-09T23:35:39.658Z,5.47
2024-05-09T23:38:06.322Z,4.93
2024-05-09T23:40:39.581Z,5.00
2024-05-09T23:43:08.191Z,4.77
2024-05-09T23:45:37.664Z,4.80
2024-05-09T23:48:04.962Z,4.90
2024-05-09T23:50:38.899Z,4.93
2024-05-09T23:53:08.456Z,5.07
2024-05-09T23:55:39.014Z,5.13
2024-05-09T23:58:06.305Z,5.20
